Time;durP1;ratioP1;P1;durP2;ratioP2;P2;SDS_P1;SDS_P2;PMS_P1;PMS_P2;Temp;Humidity;BMP_temperature;BMP_pressure;BME280_temperature;BME280_humidity;BME280_pressure;Samples;Min_cycle;Max_cycle;Signal;HPM_P1;HPM_P2
2023/03/16 00:02:03;;;;;;;13.20;10.63;;;;;;;5.64;66.66;101657.69;5030728;28;20740;-55
2023/03/16 00:04:29;;;;;;;12.60;11.30;;;;;;;5.75;67.36;101653.88;5030959;28;20049;-56
2023/03/16 00:06:55;;;;;;;13.57;12.25;;;;;;;5.61;67.46;101656.91;5033477;28;20049;-56
2023/03/16 00:09:20;;;;;;;12.38;11.15;;;;;;;5.69;67.36;101647.00;5032817;28;20037;-55
2023/03/16 00:11:46;;;;;;;12.35;11.15;;;;;;;5.72;67.08;101646.06;5032508;28;20029;-56
2023/03/16 00:14:11;;;;;;;12.85;11.73;;;;;;;5.68;67.01;101642.66;5032205;28;20029;-55
2023/03/16 00:16:39;;;;;;;11.57;10.65;;;;;;;5.83;66.65;101636.91;5030567;28;20078;-56
2023/03/16 00:19:04;;;;;;;11.85;10.70;;;;;;;5.73;67.22;101640.72;5031922;28;20465;-56
2023/03/16 00:21:30;;;;;;;12.48;11.48;;;;;;;5.62;67.49;101622.59;5033128;28;20109;-56
2023/03/16 00:23:57;;;;;;;13.07;11.45;;;;;;;5.63;67.57;101636.63;5032582;28;20029;-55
2023/03/16 00:26:22;;;;;;;12.15;11.05;;;;;;;5.66;67.39;101631.25;5028364;28;20488;-56
2023/03/16 00:28:48;;;;;;;12.80;11.07;;;;;;;5.71;67.71;101626.72;5029618;28;20029;-56
2023/03/16 00:31:13;;;;;;;12.60;11.32;;;;;;;5.78;67.52;101624.75;5028613;28;20029;-56
2023/03/16 00:33:41;;;;;;;12.48;11.20;;;;;;;5.74;67.59;101631.91;5032105;28;20029;-56
2023/03/16 00:36:10;;;;;;;12.88;11.57;;;;;;;5.67;67.40;101628.56;5031487;28;20387;-56
2023/03/16 00:38:38;;;;;;;12.45;11.18;;;;;;;5.61;68.59;101627.88;5032585;28;20108;-56
2023/03/16 00:41:06;;;;;;;12.13;11.07;;;;;;;5.43;69.08;101627.53;5031758;28;20055;-55
2023/03/16 00:43:41;;;;;;;12.55;11.45;;;;;;;5.54;68.38;101621.09;5031289;28;20030;-56
2023/03/16 00:46:12;;;;;;;12.88;11.70;;;;;;;5.51;68.85;101616.75;5032328;28;20021;-56
2023/03/16 00:48:41;;;;;;;13.45;12.10;;;;;;;5.46;69.08;101614.25;5015291;28;20531;-55
2023/03/16 00:51:11;;;;;;;12.32;11.18;;;;;;;5.55;69.02;101612.25;5032423;28;20095;-56
2023/03/16 00:53:38;;;;;;;13.13;11.55;;;;;;;5.57;68.83;101615.72;5032668;28;20388;-56
2023/03/16 00:56:05;;;;;;;13.50;12.13;;;;;;;5.43;68.97;101606.41;5034503;28;20499;-56
2023/03/16 00:58:34;;;;;;;12.82;11.70;;;;;;;5.61;68.72;101612.91;5038850;28;20440;-55
2023/03/16 01:01:09;;;;;;;13.18;11.98;;;;;;;5.57;68.76;101603.38;5030686;28;20040;-56
2023/03/16 01:03:34;;;;;;;12.98;11.68;;;;;;;5.46;69.34;101605.47;5030345;28;20083;-56
2023/03/16 01:06:19;;;;;;;12.80;11.63;;;;;;;5.57;69.01;101598.09;5032399;28;20025;-56
2023/03/16 01:08:46;;;;;;;12.07;11.07;;;;;;;5.54;68.77;101590.28;5032393;28;20091;-56
2023/03/16 01:11:17;;;;;;;13.40;12.20;;;;;;;5.52;68.74;101592.09;5032538;28;20029;-56
2023/03/16 01:13:46;;;;;;;11.88;10.57;;;;;;;5.61;68.62;101580.41;5027937;28;20053;-55
2023/03/16 01:16:11;;;;;;;11.77;10.65;;;;;;;5.56;68.74;101572.63;5029601;28;20087;-55
2023/03/16 01:18:40;;;;;;;12.43;11.32;;;;;;;5.61;68.90;101575.13;5032539;28;20419;-55
2023/03/16 01:21:08;;;;;;;11.65;10.63;;;;;;;5.61;68.90;101572.47;5031734;28;20021;-56
2023/03/16 01:23:36;;;;;;;13.30;12.00;;;;;;;5.55;68.76;101562.97;5030916;28;20025;-56
2023/03/16 01:26:04;;;;;;;13.13;12.02;;;;;;;5.50;69.04;101545.56;5028595;28;20013;-55
2023/03/16 01:28:31;;;;;;;14.10;11.50;;;;;;;5.59;69.73;101561.09;5030562;28;20103;-55
2023/03/16 01:31:05;;;;;;;13.55;12.15;;;;;;;5.54;69.16;101557.75;5028686;28;20033;-56
2023/03/16 01:33:32;;;;;;;13.10;11.90;;;;;;;5.53;69.71;101553.38;5022522;28;20037;-56
2023/03/16 01:36:08;;;;;;;12.80;11.52;;;;;;;5.57;68.95;101545.31;5031428;28;20026;-56
2023/03/16 01:38:33;;;;;;;12.02;11.00;;;;;;;5.56;70.08;101542.72;5046855;28;20025;-56
2023/03/16 01:40:59;;;;;;;12.75;11.50;;;;;;;5.49;70.07;101530.66;5031772;28;20464;-55
2023/03/16 01:43:27;;;;;;;12.65;11.45;;;;;;;5.46;70.41;101548.28;5029700;28;20026;-56
2023/03/16 01:46:04;;;;;;;12.43;11.30;;;;;;;5.53;70.24;101541.06;5029598;28;20417;-55
2023/03/16 01:48:37;;;;;;;12.07;11.00;;;;;;;5.57;70.53;101552.38;5030318;28;20025;-56
2023/03/16 01:51:10;;;;;;;12.10;11.13;;;;;;;5.67;70.14;101548.53;5030256;28;20021;-56
2023/03/16 01:53:40;;;;;;;13.23;11.90;;;;;;;5.57;70.09;101540.06;5031765;28;20072;-55
2023/03/16 01:56:09;;;;;;;13.75;12.43;;;;;;;5.57;70.05;101544.47;5029271;28;20029;-56
2023/03/16 01:58:36;;;;;;;14.00;12.30;;;;;;;5.60;69.60;101544.38;5030042;28;20036;-56
2023/03/16 02:01:02;;;;;;;13.20;11.70;;;;;;;5.64;69.44;101531.00;5029290;28;20025;-56
2023/03/16 02:03:29;;;;;;;13.35;11.65;;;;;;;5.58;68.91;101533.84;5029124;28;20534;-56
2023/03/16 02:06:17;;;;;;;13.25;11.32;;;;;;;5.66;69.49;101529.19;5031434;28;20461;-56
2023/03/16 02:08:47;;;;;;;12.65;11.35;;;;;;;5.62;69.24;101524.09;5031499;28;20091;-56
2023/03/16 02:11:16;;;;;;;;;;;;;;;5.80;68.14;101531.41;5032047;28;20425;-57
2023/03/16 02:13:44;;;;;;;12.32;11.32;;;;;;;5.67;69.40;101525.66;5031796;28;19916;-56
2023/03/16 02:16:13;;;;;;;12.55;11.30;;;;;;;5.60;69.85;101513.56;5044169;28;20112;-55
2023/03/16 02:18:40;;;;;;;13.40;12.05;;;;;;;5.48;70.42;101511.31;5030204;28;20116;-56
2023/03/16 02:21:18;;;;;;;14.60;11.38;;;;;;;5.56;70.89;101514.59;5039687;28;20029;-55
2023/03/16 02:23:44;;;;;;;11.95;10.77;;;;;;;5.59;71.42;101522.41;5039634;28;20026;-56
2023/03/16 02:26:25;;;;;;;12.23;11.32;;;;;;;5.51;72.07;101521.78;5029132;28;20029;-55
2023/03/16 02:29:11;;;;;;;12.25;11.15;;;;;;;5.62;71.23;101514.41;5030113;28;20548;-56
2023/03/16 02:31:38;;;;;;;12.70;11.43;;;;;;;5.60;71.48;101518.84;5027134;28;20030;-56
2023/03/16 02:34:03;;;;;;;12.05;10.95;;;;;;;5.60;71.46;101512.72;5031339;28;20503;-56
2023/03/16 02:36:32;;;;;;;11.52;10.30;;;;;;;5.58;72.54;101512.75;5033921;28;20104;-55
2023/03/16 02:38:57;;;;;;;12.38;11.07;;;;;;;5.42;74.45;101499.19;5035088;28;20432;-55
2023/03/16 02:41:23;;;;;;;12.32;11.20;;;;;;;5.38;74.17;101494.94;5034795;28;20056;-56
2023/03/16 02:44:00;;;;;;;12.90;11.65;;;;;;;5.46;74.55;101521.91;5034890;28;20025;-56
2023/03/16 02:46:27;;;;;;;13.50;12.10;;;;;;;5.39;74.81;101514.25;5033195;28;20025;-56
2023/03/16 02:49:15;;;;;;;12.15;10.90;;;;;;;5.42;74.31;101515.00;5032969;28;20056;-56
2023/03/16 02:51:43;;;;;;;12.43;11.30;;;;;;;5.45;74.41;101508.78;5032582;28;20025;-56
2023/03/16 02:54:09;;;;;;;12.27;11.10;;;;;;;5.43;75.25;101502.69;5034750;28;20021;-59
2023/03/16 02:56:35;;;;;;;12.48;11.38;;;;;;;5.42;74.95;101493.06;5034683;28;20111;-56
2023/03/16 02:59:03;;;;;;;13.05;11.73;;;;;;;5.32;75.07;101494.22;5034698;28;20025;-56
2023/03/16 03:01:28;;;;;;;12.98;11.85;;;;;;;5.39;75.02;101487.88;5030539;28;20068;-56
2023/03/16 03:03:56;;;;;;;12.10;10.88;;;;;;;5.39;75.23;101483.44;5034582;28;20025;-56
2023/03/16 03:06:23;;;;;;;12.25;11.15;;;;;;;5.35;74.82;101491.50;5034611;28;20029;-56
2023/03/16 03:08:48;;;;;;;12.25;10.52;;;;;;;5.45;75.44;101485.03;5033163;28;20053;-56
2023/03/16 03:11:14;;;;;;;13.07;11.88;;;;;;;5.32;74.92;101481.91;5033363;28;20075;-55
2023/03/16 03:13:42;;;;;;;13.23;11.93;;;;;;;5.39;74.92;101479.97;5031934;28;20018;-56
2023/03/16 03:16:07;;;;;;;12.18;11.02;;;;;;;5.40;75.19;101487.81;5033875;28;20026;-56
2023/03/16 03:18:33;;;;;;;14.18;12.73;;;;;;;5.40;74.09;101479.91;5031978;28;20049;-56
2023/03/16 03:20:58;;;;;;;13.40;12.20;;;;;;;5.36;74.03;101486.19;5034225;28;20022;-55
2023/03/16 03:23:24;;;;;;;12.20;10.95;;;;;;;5.36;74.62;101491.47;5033028;28;20029;-55
2023/03/16 03:25:49;;;;;;;11.98;10.70;;;;;;;5.30;74.83;101490.78;5034100;28;20100;-56
2023/03/16 03:28:14;;;;;;;12.55;11.02;;;;;;;5.28;74.32;101480.28;5034461;28;20431;-55
2023/03/16 03:30:40;;;;;;;12.63;11.32;;;;;;;5.32;74.86;101484.53;5031620;28;20112;-56
2023/03/16 03:33:06;;;;;;;11.68;10.63;;;;;;;5.27;75.43;101485.63;5032975;28;20018;-56
2023/03/16 03:35:31;;;;;;;11.73;10.63;;;;;;;5.27;74.29;101475.94;5033871;28;20375;-55
2023/03/16 03:37:56;;;;;;;11.35;10.25;;;;;;;5.32;74.79;101487.19;5032635;28;20488;-55
2023/03/16 03:40:24;;;;;;;13.00;11.90;;;;;;;5.26;74.23;101466.28;5032822;28;20052;-56
2023/03/16 03:42:50;;;;;;;12.25;10.73;;;;;;;5.33;74.65;101473.09;5034079;28;20053;-55
2023/03/16 03:45:17;;;;;;;12.98;10.77;;;;;;;5.31;74.36;101469.63;5031997;28;20052;-56
2023/03/16 03:47:43;;;;;;;12.32;11.32;;;;;;;5.27;73.80;101470.66;5032927;28;20049;-55
2023/03/16 03:50:11;;;;;;;14.27;10.70;;;;;;;5.23;74.47;101477.81;5032463;28;20477;-55
2023/03/16 03:52:36;;;;;;;11.70;10.52;;;;;;;5.32;74.45;101476.63;5030877;28;20026;-56
2023/03/16 03:55:02;;;;;;;11.65;10.52;;;;;;;5.34;73.87;101469.53;5047628;28;20021;-56
2023/03/16 03:57:27;;;;;;;12.07;10.90;;;;;;;5.32;74.03;101470.50;5048273;28;20029;-55
2023/03/16 03:59:57;;;;;;;11.27;10.23;;;;;;;5.29;74.05;101457.41;5050631;28;20021;-56
2023/03/16 04:02:23;;;;;;;11.40;10.38;;;;;;;5.36;73.88;101461.59;5051293;28;20045;-55
2023/03/16 04:04:48;;;;;;;11.52;10.43;;;;;;;5.32;74.83;101462.59;5037708;28;20024;-56
2023/03/16 04:07:16;;;;;;;11.70;10.73;;;;;;;5.30;74.60;101453.88;5045358;28;20036;-55
2023/03/16 04:09:41;;;;;;;10.93;9.88;;;;;;;5.33;74.74;101448.50;5051229;28;20028;-56
2023/03/16 04:12:07;;;;;;;10.95;9.90;;;;;;;5.16;74.01;101420.00;5046881;28;20031;-56
2023/03/16 04:14:33;;;;;;;11.38;10.27;;;;;;;5.22;75.02;101435.66;5047786;28;20029;-56
2023/03/16 04:16:59;;;;;;;10.90;9.88;;;;;;;5.19;75.13;101436.59;5050004;28;20036;-55
2023/03/16 04:19:24;;;;;;;11.38;10.23;;;;;;;5.21;76.04;101434.78;5050655;28;20025;-56
2023/03/16 04:21:50;;;;;;;10.90;9.80;;;;;;;5.29;74.59;101434.53;5050941;28;20112;-56
2023/03/16 04:24:16;;;;;;;10.85;9.85;;;;;;;5.21;74.89;101445.34;5025713;28;20104;-56
2023/03/16 04:26:43;;;;;;;11.82;10.73;;;;;;;5.24;75.14;101444.38;5029931;28;20076;-56
2023/03/16 04:29:16;;;;;;;10.95;9.85;;;;;;;5.23;74.90;101440.88;5036702;28;20017;-56
2023/03/16 04:31:43;;;;;;;11.27;10.27;;;;;;;5.29;74.83;101436.31;5050841;28;20033;-56
2023/03/16 04:34:10;;;;;;;10.57;9.48;;;;;;;5.34;74.44;101437.88;5052978;28;20025;-56
2023/03/16 04:36:36;;;;;;;11.55;10.23;;;;;;;5.28;75.09;101442.50;5049671;28;20028;-55
2023/03/16 04:39:03;;;;;;;11.55;10.45;;;;;;;5.30;75.11;101433.63;5047425;28;20032;-56
2023/03/16 04:41:29;;;;;;;10.77;9.98;;;;;;;5.23;74.58;101429.44;5050575;28;20029;-56
2023/03/16 04:43:56;;;;;;;12.52;10.23;;;;;;;5.33;74.65;101433.53;5042553;28;20083;-56
2023/03/16 04:46:22;;;;;;;11.05;9.98;;;;;;;5.30;75.21;101428.34;5031263;28;20048;-55
2023/03/16 04:48:49;;;;;;;10.80;9.80;;;;;;;5.39;74.43;101429.84;5032715;28;20052;-55
2023/03/16 04:51:15;;;;;;;10.20;9.20;;;;;;;5.36;74.32;101432.56;5038014;28;20037;-56
2023/03/16 04:53:40;;;;;;;10.57;9.68;;;;;;;5.38;74.09;101434.25;5050873;28;20117;-56
2023/03/16 04:56:06;;;;;;;9.55;8.68;;;;;;;5.40;74.74;101432.41;5048616;28;20029;-56
2023/03/16 04:58:32;;;;;;;10.57;9.57;;;;;;;5.36;75.46;101429.94;5049194;28;20192;-56
2023/03/16 05:00:58;;;;;;;10.45;9.45;;;;;;;5.36;76.03;101435.22;5032279;28;20029;-56
2023/03/16 05:03:23;;;;;;;10.57;9.68;;;;;;;5.38;75.27;101426.34;5050909;28;20045;-56
2023/03/16 05:05:49;;;;;;;11.23;10.00;;;;;;;5.33;76.59;101428.25;5044280;28;20082;-56
2023/03/16 05:08:15;;;;;;;10.90;9.77;;;;;;;5.36;76.08;101432.56;5044687;28;20028;-56
2023/03/16 05:10:41;;;;;;;13.93;9.20;;;;;;;5.34;76.23;101435.25;5028408;28;20036;-56
2023/03/16 05:13:07;;;;;;;10.73;9.50;;;;;;;5.30;77.26;101422.22;5030804;28;20025;-56
2023/03/16 05:15:32;;;;;;;9.75;8.48;;;;;;;5.32;76.56;101415.09;5030374;28;20041;-55
2023/03/16 05:17:58;;;;;;;10.32;9.32;;;;;;;5.27;77.07;101410.00;5032086;28;20037;-55
2023/03/16 05:20:23;;;;;;;10.23;9.32;;;;;;;5.29;77.42;101408.16;5029697;28;20032;-56
2023/03/16 05:22:49;;;;;;;11.15;9.93;;;;;;;5.34;76.77;101413.28;5032172;28;20025;-56
2023/03/16 05:25:16;;;;;;;9.52;8.48;;;;;;;5.26;77.37;101416.16;5026763;28;20496;-56
2023/03/16 05:27:52;;;;;;;12.38;9.00;;;;;;;5.27;78.22;101414.41;5029943;28;20032;-56
2023/03/16 05:30:18;;;;;;;9.88;8.98;;;;;;;5.38;78.12;101414.91;5031607;28;20034;-56
2023/03/16 05:32:44;;;;;;;10.25;9.25;;;;;;;5.34;76.90;101403.59;5031806;28;20025;-55
2023/03/16 05:35:12;;;;;;;12.13;8.98;;;;;;;5.30;78.61;101407.25;5031509;28;20030;-56
2023/03/16 05:37:41;;;;;;;9.95;9.05;;;;;;;5.29;77.90;101402.03;5036569;28;20025;-56
2023/03/16 05:40:19;;;;;;;13.57;8.10;;;;;;;5.32;77.33;101405.41;5029980;28;20025;-56
2023/03/16 05:42:53;;;;;;;10.70;8.45;;;;;;;5.28;77.40;101403.81;5029368;28;20025;-56
2023/03/16 05:45:21;;;;;;;10.30;9.27;;;;;;;5.23;77.78;101398.69;5031295;28;20021;-55
2023/03/16 05:47:46;;;;;;;9.88;8.98;;;;;;;5.26;76.85;101396.84;5031695;28;20021;-55
2023/03/16 05:50:15;;;;;;;10.40;9.38;;;;;;;5.31;77.27;101390.50;5031938;28;20380;-56
2023/03/16 05:52:43;;;;;;;10.50;9.60;;;;;;;5.32;76.89;101389.59;5032062;28;20500;-56
2023/03/16 05:55:10;;;;;;;10.07;9.02;;;;;;;5.29;77.26;101384.41;5029880;28;20032;-56
2023/03/16 05:57:36;;;;;;;10.98;9.52;;;;;;;5.29;77.44;101381.78;5029564;28;20083;-56
2023/03/16 06:00:13;;;;;;;10.35;9.40;;;;;;;5.24;77.63;101363.50;5030998;28;20029;-56
2023/03/16 06:02:39;;;;;;;10.98;9.88;;;;;;;5.24;77.26;101368.75;5031716;28;20046;-55
2023/03/16 06:05:04;;;;;;;14.27;9.88;;;;;;;5.37;77.40;101386.81;5031346;28;20499;-55
2023/03/16 06:07:30;;;;;;;14.95;9.55;;;;;;;5.39;76.49;101385.00;5031698;28;20029;-55
2023/03/16 06:09:55;;;;;;;9.88;8.88;;;;;;;5.35;76.77;101386.84;5032883;28;20037;-56
2023/03/16 06:12:20;;;;;;;10.75;9.65;;;;;;;5.41;76.74;101385.78;5031802;28;20025;-56
2023/03/16 06:14:46;;;;;;;10.05;9.02;;;;;;;5.44;75.83;101378.66;5032786;28;20057;-56
2023/03/16 06:17:14;;;;;;;12.10;9.88;;;;;;;5.41;76.30;101385.78;5024892;28;20025;-56
2023/03/16 06:19:39;;;;;;;10.98;10.00;;;;;;;5.40;76.19;101377.03;5035566;28;20017;-56
2023/03/16 06:22:05;;;;;;;10.43;9.50;;;;;;;5.45;76.02;101379.53;5034118;28;20083;-55
2023/03/16 06:24:30;;;;;;;13.20;9.52;;;;;;;5.49;76.35;101383.78;5034289;28;20511;-56
2023/03/16 06:26:55;;;;;;;13.60;9.95;;;;;;;5.44;75.55;101367.22;5032942;28;20117;-56
2023/03/16 06:29:21;;;;;;;11.10;9.80;;;;;;;5.34;76.16;101350.00;5033602;28;20017;-55
2023/03/16 06:31:46;;;;;;;10.85;9.75;;;;;;;5.52;76.47;101383.66;5034138;28;20024;-56
2023/03/16 06:34:11;;;;;;;10.98;9.90;;;;;;;5.51;77.65;101374.03;5034046;28;20025;-56
2023/03/16 06:36:38;;;;;;;10.82;9.52;;;;;;;5.55;77.91;101380.06;5033844;28;20022;-55
2023/03/16 06:39:04;;;;;;;14.65;10.32;;;;;;;5.56;76.72;101369.47;5034590;28;20025;-56
2023/03/16 06:41:30;;;;;;;11.10;10.02;;;;;;;5.59;76.78;101372.00;5017254;28;20037;-55
2023/03/16 06:43:57;;;;;;;11.93;10.70;;;;;;;5.51;77.44;101358.22;5034988;28;20025;-56
2023/03/16 06:46:23;;;;;;;10.10;9.20;;;;;;;5.62;78.51;101358.72;5048593;28;20060;-56
2023/03/16 06:48:48;;;;;;;11.63;9.68;;;;;;;5.52;76.60;101356.44;5047935;28;20116;-56
2023/03/16 06:51:14;;;;;;;10.73;9.80;;;;;;;5.56;78.01;101363.31;5032461;28;20473;-56
2023/03/16 06:53:40;;;;;;;10.57;9.57;;;;;;;5.56;77.18;101381.78;5034016;28;20373;-56
2023/03/16 06:56:05;;;;;;;10.50;9.10;;;;;;;5.53;77.73;101361.66;5034129;28;20049;-56
2023/03/16 06:58:31;;;;;;;10.18;9.15;;;;;;;5.62;77.00;101371.03;5032279;28;20111;-56
2023/03/16 07:01:00;;;;;;;10.63;9.43;;;;;;;5.62;77.10;101357.84;5034045;28;20432;-56
2023/03/16 07:03:25;;;;;;;10.60;9.60;;;;;;;5.66;77.18;101370.88;5034484;28;20041;-56
2023/03/16 07:05:51;;;;;;;10.48;9.40;;;;;;;5.60;77.30;101357.03;5034520;28;20056;-55
2023/03/16 07:08:16;;;;;;;12.32;9.98;;;;;;;5.69;77.17;101367.28;5032997;28;20087;-56
2023/03/16 07:10:41;;;;;;;12.90;9.48;;;;;;;5.74;77.18;101361.84;5032284;28;20025;-56
2023/03/16 07:13:07;;;;;;;10.68;9.07;;;;;;;5.72;77.12;101366.31;5033597;28;20402;-56
2023/03/16 07:15:32;;;;;;;11.07;9.85;;;;;;;5.84;76.00;101352.69;5033694;28;20116;-55
2023/03/16 07:17:57;;;;;;;12.07;9.30;;;;;;;5.80;75.47;101345.78;5032834;28;20029;-56
2023/03/16 07:20:23;;;;;;;12.25;9.25;;;;;;;5.84;76.38;101350.91;5032603;28;20071;-56
2023/03/16 07:22:48;;;;;;;9.90;9.00;;;;;;;5.87;76.64;101340.22;5032780;28;20017;-56
2023/03/16 07:25:14;;;;;;;9.77;8.95;;;;;;;5.92;75.49;101348.84;5033873;28;20037;-56
2023/03/16 07:27:42;;;;;;;11.25;9.90;;;;;;;5.97;75.08;101347.84;5034469;28;20160;-56
2023/03/16 07:30:13;;;;;;;10.30;9.02;;;;;;;5.96;74.96;101351.41;5030515;28;20044;-56
2023/03/16 07:32:40;;;;;;;11.60;9.20;;;;;;;5.91;74.46;101344.50;5034329;28;20055;-55
2023/03/16 07:35:09;;;;;;;11.52;9.43;;;;;;;5.91;74.35;101344.50;5032240;28;20017;-56
2023/03/16 07:37:34;;;;;;;9.60;8.73;;;;;;;5.98;74.38;101353.09;5026350;28;20398;-56
2023/03/16 07:40:00;;;;;;;11.98;8.82;;;;;;;6.05;73.66;101359.00;5032088;28;20086;-55
2023/03/16 07:42:25;;;;;;;9.80;8.80;;;;;;;6.01;74.40;101346.84;5047475;28;20473;-56
2023/03/16 07:44:51;;;;;;;10.68;9.57;;;;;;;6.05;73.19;101359.00;5015738;28;20100;-56
2023/03/16 07:47:19;;;;;;;9.63;8.75;;;;;;;5.99;73.17;101333.69;5031941;28;20505;-56
2023/03/16 07:49:45;;;;;;;10.63;8.73;;;;;;;6.07;74.00;101350.09;5032546;28;20072;-56
2023/03/16 07:52:13;;;;;;;11.63;9.13;;;;;;;6.14;73.54;101359.53;5032215;28;20108;-56
2023/03/16 07:54:39;;;;;;;10.02;8.73;;;;;;;6.16;72.79;101353.34;5033920;28;20074;-56
2023/03/16 07:57:08;;;;;;;9.93;8.93;;;;;;;6.13;73.12;101349.88;5033359;28;20013;-56
2023/03/16 07:59:33;;;;;;;9.88;8.88;;;;;;;6.22;71.88;101355.75;5040347;28;20064;-56
2023/03/16 08:01:59;;;;;;;13.00;9.13;;;;;;;6.27;71.95;101367.88;5042164;28;20084;-55
2023/03/16 08:04:24;;;;;;;9.50;8.43;;;;;;;6.28;72.09;101363.44;5031299;28;20022;-56
2023/03/16 08:06:52;;;;;;;10.73;9.70;;;;;;;6.34;71.56;101360.56;5033156;28;20022;-56
2023/03/16 08:09:17;;;;;;;9.40;8.60;;;;;;;6.32;70.84;101359.75;5033152;28;20048;-55
2023/03/16 08:11:45;;;;;;;12.02;9.50;;;;;;;6.45;70.36;101346.97;5032163;28;20061;-56
2023/03/16 08:14:10;;;;;;;9.70;8.35;;;;;;;6.49;69.86;101352.06;5035422;28;20024;-56
2023/03/16 08:16:38;;;;;;;10.15;9.15;;;;;;;6.55;70.28;101357.13;5050854;28;20392;-56
2023/03/16 08:19:03;;;;;;;11.45;9.60;;;;;;;6.57;69.90;101357.94;5039804;28;20033;-56
2023/03/16 08:21:31;;;;;;;10.13;8.88;;;;;;;6.62;70.14;101365.69;5034747;28;20044;-56
2023/03/16 08:23:57;;;;;;;9.93;9.07;;;;;;;6.60;70.44;101336.66;5031654;28;20377;-56
2023/03/16 08:26:22;;;;;;;10.45;9.38;;;;;;;6.73;68.76;101354.69;5033852;28;20021;-56
2023/03/16 08:28:50;;;;;;;10.60;9.50;;;;;;;6.79;68.26;101357.09;5037840;28;20028;-56
2023/03/16 08:31:19;;;;;;;11.70;9.02;;;;;;;6.73;69.27;101347.63;5032824;28;20415;-56
2023/03/16 08:33:46;;;;;;;9.50;8.70;;;;;;;6.83;68.97;101356.94;5032124;28;20033;-56
2023/03/16 08:36:14;;;;;;;9.55;8.52;;;;;;;6.91;68.46;101364.56;5029354;28;20060;-56
2023/03/16 08:38:43;;;;;;;9.75;8.45;;;;;;;6.90;67.68;101370.75;5024610;28;20053;-56
2023/03/16 08:41:13;;;;;;;10.38;8.35;;;;;;;6.92;68.35;101354.84;5033726;28;20488;-56
2023/03/16 08:43:38;;;;;;;10.23;9.23;;;;;;;6.90;67.78;101360.19;5048926;28;20029;-56
2023/03/16 08:46:04;;;;;;;11.00;9.05;;;;;;;6.90;67.54;101352.25;5038590;28;20023;-55
2023/03/16 08:48:32;;;;;;;9.48;8.55;;;;;;;6.87;68.04;101349.72;5043422;28;20025;-56
2023/03/16 08:51:00;;;;;;;9.70;8.82;;;;;;;6.94;67.81;101352.97;5032460;28;20397;-56
2023/03/16 08:53:27;;;;;;;11.43;8.80;;;;;;;6.95;66.96;101349.44;5015836;28;20022;-56
2023/03/16 08:56:00;;;;;;;9.52;8.57;;;;;;;7.00;67.39;101353.63;5041668;28;20025;-56
2023/03/16 08:58:26;;;;;;;10.68;9.40;;;;;;;7.03;67.17;101339.41;5031311;28;20021;-56
2023/03/16 09:00:51;;;;;;;9.43;8.63;;;;;;;7.04;66.81;101327.91;5033256;28;20033;-56
2023/03/16 09:03:17;;;;;;;10.52;9.32;;;;;;;7.19;66.33;101337.00;5031241;28;20056;-56
2023/03/16 09:05:42;;;;;;;9.32;8.43;;;;;;;7.23;66.83;101333.28;5035603;28;20499;-56
2023/03/16 09:08:12;;;;;;;9.20;8.50;;;;;;;7.31;64.64;101320.59;5024432;28;20399;-55
2023/03/16 09:10:38;;;;;;;12.45;8.88;;;;;;;7.40;65.58;101328.16;5029174;28;20033;-56
2023/03/16 09:13:05;;;;;;;9.50;8.70;;;;;;;7.45;64.65;101335.91;5029395;28;20079;-56
2023/03/16 09:15:31;;;;;;;10.27;8.77;;;;;;;7.49;65.44;101327.75;5038119;28;20079;-56
2023/03/16 09:17:59;;;;;;;13.25;8.65;;;;;;;7.56;64.44;101325.75;5036777;28;20030;-57
2023/03/16 09:20:26;;;;;;;9.73;8.73;;;;;;;7.71;64.06;101326.88;5028690;28;20069;-56
2023/03/16 09:22:52;;;;;;;9.18;8.27;;;;;;;7.85;63.22;101323.59;5036803;28;20506;-56
2023/03/16 09:25:18;;;;;;;10.35;8.25;;;;;;;8.04;62.51;101328.94;5025833;28;20068;-56
2023/03/16 09:27:44;;;;;;;9.70;8.52;;;;;;;8.20;62.22;101328.16;5021429;28;20030;-56
2023/03/16 09:30:10;;;;;;;10.65;7.40;;;;;;;8.32;61.65;101332.03;5031403;28;20021;-56
2023/03/16 09:32:38;;;;;;;9.23;7.20;;;;;;;8.39;61.16;101330.88;5030861;28;20484;-56
2023/03/16 09:35:06;;;;;;;7.85;7.07;;;;;;;8.41;60.30;101313.13;5050201;28;20498;-56
2023/03/16 09:37:33;;;;;;;7.30;6.70;;;;;;;8.44;59.99;101332.44;5047723;28;20741;-56
2023/03/16 09:39:58;;;;;;;7.65;6.97;;;;;;;8.48;60.73;101316.34;5035915;28;20026;-56
2023/03/16 09:42:41;;;;;;;9.80;8.05;;;;;;;8.53;60.48;101322.28;5031022;28;20017;-56
2023/03/16 09:45:31;;;;;;;8.45;7.45;;;;;;;8.67;59.07;101326.06;5028983;28;20159;-56
2023/03/16 09:47:59;;;;;;;;;;;;;;;8.88;58.92;101325.03;5031829;28;20104;-56
2023/03/16 09:50:34;;;;;;;10.27;7.95;;;;;;;9.14;57.44;101313.16;5041090;28;20351;-56
2023/03/16 09:53:22;;;;;;;8.73;7.57;;;;;;;9.32;56.61;101322.88;5050352;28;20151;-56
2023/03/16 09:55:54;;;;;;;7.50;6.63;;;;;;;9.61;56.32;101312.53;5051570;28;20021;-56
2023/03/16 09:58:21;;;;;;;8.18;7.38;;;;;;;9.78;56.28;101309.88;5050354;28;20025;-56
2023/03/16 10:00:58;;;;;;;9.35;6.80;;;;;;;9.95;55.36;101313.47;5050074;28;20029;-56
2023/03/16 10:04:08;;;;;;;8.40;6.82;;;;;;;10.12;55.38;101302.78;5051208;28;20083;-56
2023/03/16 10:06:47;;;;;;;7.22;6.32;;;;;;;10.16;53.82;101291.03;5027329;28;20342;-57
2023/03/16 10:09:44;;;;;;;7.28;6.07;;;;;;;10.40;53.56;101293.31;5051626;28;20435;-57
2023/03/16 10:12:13;;;;;;;8.65;6.32;;;;;;;10.48;52.78;101292.91;5051333;28;20056;-57
2023/03/16 10:14:52;;;;;;;8.63;6.38;;;;;;;10.54;52.88;101285.44;5051262;28;20037;-57
2023/03/16 10:17:20;;;;;;;7.40;6.13;;;;;;;10.63;51.56;101284.94;5051253;28;20029;-57
2023/03/16 10:19:52;;;;;;;6.40;5.43;;;;;;;10.84;51.54;101282.00;5050148;28;20147;-58
2023/03/16 10:22:25;;;;;;;5.78;5.15;;;;;;;10.76;50.61;101285.06;5051324;28;20029;-57
2023/03/16 10:25:14;;;;;;;8.13;5.63;;;;;;;10.92;50.45;101293.06;5040264;28;20022;-57
2023/03/16 10:27:43;;;;;;;9.90;5.88;;;;;;;10.89;50.91;101278.13;5031915;28;20061;-57
2023/03/16 10:30:26;;;;;;;7.93;4.63;;;;;;;11.23;50.69;101289.47;5031064;28;20029;-57
2023/03/16 10:32:55;;;;;;;6.93;5.18;;;;;;;11.29;49.16;101290.91;5031323;28;20033;-57
2023/03/16 10:35:41;;;;;;;8.57;4.75;;;;;;;11.28;49.55;101283.88;5031282;28;20029;-57
2023/03/16 10:38:25;;;;;;;6.80;4.90;;;;;;;11.29;50.15;101285.59;5031243;28;20103;-57
2023/03/16 10:40:52;;;;;;;6.93;5.28;;;;;;;11.30;49.10;101287.31;5030450;28;20025;-57
2023/03/16 10:43:20;;;;;;;9.43;5.47;;;;;;;11.24;49.16;101277.88;5031147;28;20026;-58
2023/03/16 10:45:46;;;;;;;5.57;4.82;;;;;;;11.39;49.07;101264.59;5030607;28;20013;-57
2023/03/16 10:48:13;;;;;;;5.82;4.50;;;;;;;11.67;49.30;101264.63;5031361;28;20159;-57
2023/03/16 10:50:40;;;;;;;6.50;4.28;;;;;;;11.94;49.52;101272.78;5031441;28;20387;-57
2023/03/16 10:53:17;;;;;;;5.95;4.05;;;;;;;12.23;47.75;101260.28;5031263;28;20110;-57
2023/03/16 10:55:44;;;;;;;7.53;3.92;;;;;;;12.31;46.69;101257.13;5033857;28;20025;-57
2023/03/16 10:58:10;;;;;;;5.63;4.13;;;;;;;12.48;47.58;101254.25;5034968;28;20022;-57
2023/03/16 11:00:40;;;;;;;8.05;4.55;;;;;;;12.62;45.99;101247.19;5033122;28;20021;-57
2023/03/16 11:03:37;;;;;;;6.68;4.05;;;;;;;12.72;46.35;101250.94;5034812;28;20081;-57
2023/03/16 11:06:06;;;;;;;6.70;4.43;;;;;;;12.49;46.02;101247.94;5033952;28;20042;-57
2023/03/16 11:08:37;;;;;;;5.88;5.22;;;;;;;12.38;45.41;101242.47;5034692;28;20025;-57
2023/03/16 11:11:13;;;;;;;5.22;4.22;;;;;;;12.64;46.59;101247.91;5034680;28;20104;-57
2023/03/16 11:13:45;;;;;;;6.60;4.13;;;;;;;12.68;44.56;101228.09;5033808;28;20025;-57
2023/03/16 11:16:31;;;;;;;5.43;3.30;;;;;;;13.28;45.54;101227.63;5032552;28;20106;-57
2023/03/16 11:19:10;;;;;;;5.40;3.40;;;;;;;13.56;42.86;101233.72;5034566;28;20480;-57
2023/03/16 11:21:55;;;;;;;5.30;3.17;;;;;;;13.66;42.80;101215.25;5034638;28;20108;-57
2023/03/16 11:24:32;;;;;;;6.75;3.78;;;;;;;13.68;42.63;101229.34;5034311;28;20481;-57
2023/03/16 11:27:03;;;;;;;5.25;3.97;;;;;;;13.59;42.36;101222.84;5033271;28;20025;-57
2023/03/16 11:29:46;;;;;;;7.15;4.18;;;;;;;13.71;43.47;101227.34;5033597;28;20488;-57
2023/03/16 11:32:19;;;;;;;6.65;4.15;;;;;;;13.66;42.60;101217.91;5034502;28;20033;-57